createdAt,value
2022-08-14T00:00:15.923Z,21.66
2022-08-14T00:01:15.909Z,21.68
2022-08-14T00:02:15.938Z,21.65
2022-08-14T00:03:15.893Z,21.63
2022-08-14T00:04:31.861Z,21.62
2022-08-14T00:05:15.865Z,21.51
2022-08-14T00:06:28.673Z,21.51
2022-08-14T00:07:15.844Z,21.51
2022-08-14T00:08:15.836Z,21.53
2022-08-14T00:09:15.823Z,21.38
2022-08-14T00:10:52.900Z,21.38
2022-08-14T00:11:15.799Z,21.38
2022-08-14T00:12:23.705Z,21.32
2022-08-14T00:13:15.779Z,21.23
2022-08-14T00:14:17.131Z,21.32
2022-08-14T00:15:15.756Z,21.28
2022-08-14T00:16:41.804Z,21.29
2022-08-14T00:17:15.734Z,21.28
2022-08-14T00:18:30.408Z,21.32
2022-08-14T00:19:18.557Z,21.41
2022-08-14T00:20:15.711Z,21.41
2022-08-14T00:21:15.691Z,21.43
2022-08-14T00:22:15.678Z,21.41
2022-08-14T00:23:16.572Z,21.38
2022-08-14T00:24:28.128Z,21.38
2022-08-14T00:25:15.654Z,21.47
2022-08-14T00:26:21.688Z,21.37
2022-08-14T00:27:15.624Z,21.44
2022-08-14T00:28:17.872Z,21.41
2022-08-14T00:29:15.603Z,21.40
2022-08-14T00:30:17.335Z,21.43
2022-08-14T00:31:15.579Z,21.38
2022-08-14T00:32:55.889Z,21.38
2022-08-14T00:33:16.410Z,21.41
2022-08-14T00:34:36.400Z,21.41
2022-08-14T00:35:15.536Z,21.41
2022-08-14T00:36:35.889Z,21.45
2022-08-14T00:37:15.510Z,21.38
2022-08-14T00:38:15.501Z,21.44
2022-08-14T00:39:18.125Z,21.43
2022-08-14T00:40:27.341Z,21.41
2022-08-14T00:41:15.465Z,21.32
2022-08-14T00:42:21.355Z,21.38
2022-08-14T00:43:15.446Z,21.30
2022-08-14T00:44:21.333Z,21.37
2022-08-14T00:45:15.424Z,21.32
2022-08-14T00:46:32.871Z,21.35
2022-08-14T00:47:15.400Z,21.25
2022-08-14T00:48:15.390Z,21.25
2022-08-14T00:49:15.383Z,21.35
2022-08-14T00:50:17.793Z,21.28
2022-08-14T00:51:15.354Z,21.28
2022-08-14T00:52:17.770Z,21.22
2022-08-14T00:53:15.333Z,21.17
2022-08-14T00:54:21.280Z,21.20
2022-08-14T00:55:15.316Z,21.19
2022-08-14T00:56:15.557Z,21.17
2022-08-14T00:57:15.286Z,21.15
2022-08-14T00:58:15.277Z,21.14
2022-08-14T00:59:16.172Z,21.13
2022-08-14T01:00:34.112Z,21.11
2022-08-14T01:01:15.240Z,21.10
2022-08-14T01:02:15.230Z,21.00
2022-08-14T01:03:15.219Z,21.08
2022-08-14T01:04:50.863Z,21.08
2022-08-14T01:05:15.197Z,21.04
2022-08-14T01:06:15.187Z,20.98
2022-08-14T01:07:15.174Z,21.01
2022-08-14T01:08:50.631Z,21.00
2022-08-14T01:09:15.152Z,20.89
2022-08-14T01:10:15.140Z,20.82
2022-08-14T01:11:15.128Z,20.89
2022-08-14T01:12:15.120Z,20.88
2022-08-14T01:13:15.108Z,20.88
2022-08-14T01:14:25.266Z,20.85
2022-08-14T01:15:15.084Z,20.83
2022-08-14T01:16:15.133Z,20.86
2022-08-14T01:17:15.060Z,20.80
2022-08-14T01:18:15.051Z,20.78
2022-08-14T01:19:15.040Z,20.83
2022-08-14T01:20:27.775Z,20.78
2022-08-14T01:21:15.015Z,20.82
2022-08-14T01:22:18.943Z,20.83
2022-08-14T01:23:16.349Z,20.70
2022-08-14T01:24:14.983Z,20.75
2022-08-14T01:25:14.970Z,20.74
2022-08-14T01:26:14.958Z,20.74
2022-08-14T01:27:14.948Z,20.71
2022-08-14T01:28:34.340Z,20.71
2022-08-14T01:29:16.114Z,20.68
2022-08-14T01:30:16.928Z,20.67
2022-08-14T01:31:14.919Z,20.68
2022-08-14T01:32:15.720Z,20.70
2022-08-14T01:33:14.879Z,20.68
2022-08-14T01:35:18.200Z,20.73
2022-08-14T01:35:19.430Z,20.64
2022-08-14T01:36:21.055Z,20.53
2022-08-14T01:37:16.499Z,20.64
2022-08-14T01:38:14.823Z,20.63
2022-08-14T01:39:15.829Z,20.58
2022-08-14T01:40:15.526Z,20.64
2022-08-14T01:41:15.931Z,20.64
2022-08-14T01:42:31.216Z,20.52
2022-08-14T01:43:14.857Z,20.56
2022-08-14T01:44:31.953Z,20.46
2022-08-14T01:45:17.801Z,20.52
2022-08-14T01:46:24.320Z,20.39
2022-08-14T01:47:21.724Z,20.36
2022-08-14T01:48:14.707Z,20.34
2022-08-14T01:49:14.696Z,20.32
2022-08-14T01:50:14.685Z,20.30
2022-08-14T01:51:19.321Z,20.33
2022-08-14T01:52:34.080Z,20.32
2022-08-14T01:53:14.659Z,20.30
2022-08-14T01:54:14.635Z,20.21
2022-08-14T01:55:14.639Z,20.19
2022-08-14T01:56:18.729Z,20.22
2022-08-14T01:57:14.599Z,20.18
2022-08-14T01:58:20.377Z,20.18
2022-08-14T01:59:18.469Z,20.08
2022-08-14T02:00:14.568Z,20.15
2022-08-14T02:01:14.581Z,20.07
2022-08-14T02:02:18.932Z,20.08
2022-08-14T02:03:14.531Z,19.96
2022-08-14T02:04:20.742Z,20.00
2022-08-14T02:05:14.509Z,19.94
2022-08-14T02:06:33.002Z,19.90
2022-08-14T02:07:15.698Z,19.84
2022-08-14T02:08:16.126Z,19.71
2022-08-14T02:09:22.311Z,19.59
2022-08-14T02:10:15.656Z,19.60
2022-08-14T02:11:14.438Z,19.59
2022-08-14T02:12:19.746Z,19.45
2022-08-14T02:13:16.206Z,19.57
2022-08-14T02:14:14.406Z,19.49
2022-08-14T02:15:15.294Z,19.52
2022-08-14T02:16:22.277Z,19.48
2022-08-14T02:17:14.370Z,19.52
2022-08-14T02:18:15.259Z,19.52
2022-08-14T02:19:14.341Z,19.53
2022-08-14T02:20:14.345Z,19.56
2022-08-14T02:21:14.347Z,19.57
2022-08-14T02:22:14.309Z,19.59
2022-08-14T02:23:14.295Z,19.53
2022-08-14T02:24:39.671Z,19.48
2022-08-14T02:25:14.268Z,19.59
2022-08-14T02:26:24.812Z,19.67
2022-08-14T02:28:23.807Z,19.66
2022-08-14T02:28:25.302Z,19.64
2022-08-14T02:29:14.224Z,19.71
2022-08-14T02:30:14.210Z,19.67
2022-08-14T02:31:14.957Z,19.72
2022-08-14T02:32:20.084Z,19.77
2022-08-14T02:33:14.254Z,19.77
2022-08-14T02:34:22.173Z,19.75
2022-08-14T02:35:14.151Z,19.72
2022-08-14T02:37:02.921Z,19.77
2022-08-14T02:37:14.137Z,19.75
2022-08-14T02:38:30.253Z,19.85
2022-08-14T02:39:14.102Z,19.84
2022-08-14T02:40:14.091Z,19.87
2022-08-14T02:41:14.078Z,19.82
2022-08-14T02:42:14.073Z,19.85
2022-08-14T02:43:14.061Z,19.87
2022-08-14T02:44:14.050Z,19.85
2022-08-14T02:45:14.042Z,19.82
2022-08-14T02:46:14.020Z,19.90
2022-08-14T02:47:14.714Z,19.85
2022-08-14T02:49:04.443Z,19.89
2022-08-14T02:49:13.985Z,19.87
2022-08-14T02:50:13.971Z,19.85
2022-08-14T02:51:13.962Z,19.85
2022-08-14T02:52:55.876Z,19.79
2022-08-14T02:53:13.969Z,19.78
2022-08-14T02:54:19.697Z,19.75
2022-08-14T02:55:15.571Z,19.78
2022-08-14T02:56:30.867Z,19.81
2022-08-14T02:57:15.890Z,19.84
2022-08-14T02:58:29.141Z,19.81
2022-08-14T02:59:13.870Z,19.75
2022-08-14T03:00:17.918Z,19.89
2022-08-14T03:01:13.886Z,19.79
2022-08-14T03:02:24.585Z,19.79
2022-08-14T03:03:13.813Z,19.79
2022-08-14T03:04:13.812Z,19.74
2022-08-14T03:05:13.787Z,19.64
2022-08-14T03:06:13.777Z,19.55
2022-08-14T03:07:13.769Z,19.59
2022-08-14T03:08:15.311Z,19.45
2022-08-14T03:09:13.740Z,19.27
2022-08-14T03:10:28.068Z,19.34
2022-08-14T03:11:13.717Z,19.23
2022-08-14T03:12:13.711Z,19.20
2022-08-14T03:13:19.258Z,19.08
2022-08-14T03:14:15.524Z,19.12
2022-08-14T03:15:14.311Z,19.04
2022-08-14T03:16:20.045Z,19.00
2022-08-14T03:17:13.644Z,18.96
2022-08-14T03:18:13.634Z,18.91
2022-08-14T03:19:13.618Z,18.98
2022-08-14T03:20:13.614Z,18.86
2022-08-14T03:21:13.595Z,18.83
2022-08-14T03:22:17.628Z,18.76
2022-08-14T03:23:13.584Z,18.73
2022-08-14T03:24:21.645Z,18.68
2022-08-14T03:25:13.547Z,18.73
2022-08-14T03:26:18.021Z,18.58
2022-08-14T03:27:13.524Z,18.67
2022-08-14T03:28:14.947Z,18.66
2022-08-14T03:29:14.001Z,18.63
2022-08-14T03:30:14.448Z,18.57
2022-08-14T03:31:13.621Z,18.60
2022-08-14T03:32:13.462Z,18.55
2022-08-14T03:33:13.447Z,18.53
2022-08-14T03:34:24.316Z,18.42
2022-08-14T03:35:13.423Z,18.51
2022-08-14T03:37:37.770Z,18.55
2022-08-14T03:37:38.705Z,18.51
2022-08-14T03:39:11.854Z,18.48
2022-08-14T03:39:22.533Z,18.58
2022-08-14T03:40:18.313Z,18.45
2022-08-14T03:41:13.349Z,18.49
2022-08-14T03:42:19.199Z,18.45
2022-08-14T03:43:13.319Z,18.41
2022-08-14T03:45:18.956Z,18.41
2022-08-14T03:45:25.324Z,18.46
2022-08-14T03:46:53.060Z,18.42
2022-08-14T03:47:15.511Z,18.41
2022-08-14T03:48:30.197Z,18.39
2022-08-14T03:49:13.474Z,18.37
2022-08-14T03:50:13.234Z,18.41
2022-08-14T03:51:13.223Z,18.36
2022-08-14T03:52:18.174Z,18.33
2022-08-14T03:53:13.199Z,18.36
2022-08-14T03:54:15.691Z,18.31
2022-08-14T03:55:13.174Z,18.30
2022-08-14T03:56:13.161Z,18.19
2022-08-14T03:57:13.148Z,18.19
2022-08-14T03:58:13.135Z,18.23
2022-08-14T03:59:17.622Z,18.03
2022-08-14T04:00:13.382Z,18.11
2022-08-14T04:01:13.167Z,18.03
2022-08-14T04:02:33.377Z,18.05
2022-08-14T04:03:16.718Z,18.05
2022-08-14T04:04:13.060Z,18.11
2022-08-14T04:05:16.498Z,18.06
2022-08-14T04:06:13.035Z,18.06
2022-08-14T04:07:13.024Z,18.16
2022-08-14T04:08:29.370Z,18.08
2022-08-14T04:09:12.995Z,18.16
2022-08-14T04:10:12.995Z,18.19
2022-08-14T04:11:12.974Z,18.19
2022-08-14T04:12:13.456Z,18.26
2022-08-14T04:13:12.951Z,18.28
2022-08-14T04:14:15.303Z,18.34
2022-08-14T04:15:12.922Z,18.36
2022-08-14T04:16:13.103Z,18.41
2022-08-14T04:17:12.894Z,18.42
2022-08-14T04:18:12.883Z,18.41
2022-08-14T04:19:12.870Z,18.43
2022-08-14T04:20:12.859Z,18.39
2022-08-14T04:21:12.851Z,18.48
2022-08-14T04:22:12.832Z,18.49
2022-08-14T04:23:23.337Z,18.41
2022-08-14T04:24:12.807Z,18.45
2022-08-14T04:25:12.792Z,18.55
2022-08-14T04:26:14.861Z,18.52
2022-08-14T04:27:12.773Z,18.61
2022-08-14T04:29:06.786Z,18.48
2022-08-14T04:29:15.271Z,18.61
2022-08-14T04:30:12.732Z,18.42
2022-08-14T04:31:12.724Z,18.45
2022-08-14T04:32:57.475Z,18.51
2022-08-14T04:33:18.581Z,18.46
2022-08-14T04:34:20.969Z,18.39
2022-08-14T04:35:12.667Z,18.45
2022-08-14T04:36:15.959Z,18.37
2022-08-14T04:37:12.642Z,18.33
2022-08-14T04:38:37.268Z,18.36
2022-08-14T04:39:12.623Z,18.31
2022-08-14T04:40:12.608Z,18.31
2022-08-14T04:41:12.591Z,18.23
2022-08-14T04:42:14.134Z,18.27
2022-08-14T04:43:14.276Z,18.28
2022-08-14T04:44:13.425Z,18.24
2022-08-14T04:45:12.540Z,18.28
2022-08-14T04:46:55.392Z,18.18
2022-08-14T04:47:12.520Z,18.21
2022-08-14T04:48:12.873Z,18.31
2022-08-14T04:49:15.174Z,18.24
2022-08-14T04:50:12.496Z,18.18
2022-08-14T04:51:12.467Z,18.19
2022-08-14T04:52:18.936Z,18.23
2022-08-14T04:53:12.443Z,18.24
2022-08-14T04:54:12.433Z,18.18
2022-08-14T04:55:12.415Z,18.21
2022-08-14T04:56:31.412Z,18.24
2022-08-14T04:57:12.392Z,18.28
2022-08-14T04:58:21.915Z,18.36
2022-08-14T04:59:12.369Z,18.46
2022-08-14T05:00:16.201Z,18.45
2022-08-14T05:01:12.938Z,18.48
2022-08-14T05:02:12.379Z,18.45
2022-08-14T05:03:12.334Z,18.49
2022-08-14T05:04:14.732Z,18.51
2022-08-14T05:05:12.290Z,18.51
2022-08-14T05:06:38.404Z,18.64
2022-08-14T05:07:12.271Z,18.55
2022-08-14T05:08:32.414Z,18.64
2022-08-14T05:09:13.996Z,18.68
2022-08-14T05:10:12.751Z,18.70
2022-08-14T05:11:13.380Z,18.60
2022-08-14T05:13:13.065Z,18.68
2022-08-14T05:13:15.517Z,18.73
2022-08-14T05:14:32.979Z,18.73
2022-08-14T05:15:12.169Z,18.71
2022-08-14T05:16:12.152Z,18.70
2022-08-14T05:17:12.172Z,18.71
2022-08-14T05:18:37.007Z,18.76
2022-08-14T05:19:24.955Z,18.76
2022-08-14T05:21:54.630Z,18.83
2022-08-14T05:21:56.576Z,18.96
2022-08-14T05:22:17.033Z,18.94
2022-08-14T05:23:12.065Z,18.91
2022-08-14T05:24:17.708Z,19.05
2022-08-14T05:25:12.055Z,18.97
2022-08-14T05:26:12.030Z,19.07
2022-08-14T05:27:12.030Z,19.16
2022-08-14T05:28:14.112Z,19.16
2022-08-14T05:29:12.017Z,19.19
2022-08-14T05:30:11.983Z,19.29
2022-08-14T05:31:11.967Z,19.34
2022-08-14T05:32:11.953Z,19.41
2022-08-14T05:33:11.944Z,19.49
2022-08-14T05:34:11.934Z,19.48
2022-08-14T05:35:11.918Z,19.62
2022-08-14T05:36:16.660Z,19.66
2022-08-14T05:37:11.894Z,19.71
2022-08-14T05:38:22.300Z,19.75
2022-08-14T05:39:11.870Z,19.89
2022-08-14T05:40:11.857Z,19.87
2022-08-14T05:41:11.845Z,19.96
2022-08-14T05:42:22.260Z,20.03
2022-08-14T05:43:11.823Z,20.12
2022-08-14T05:44:11.806Z,20.12
2022-08-14T05:45:13.657Z,20.26
2022-08-14T05:46:11.782Z,20.30
2022-08-14T05:47:11.774Z,20.30
2022-08-14T05:48:11.759Z,20.33
2022-08-14T05:49:11.748Z,20.34
2022-08-14T05:50:18.511Z,20.42
2022-08-14T05:51:11.725Z,20.46
2022-08-14T05:52:11.712Z,20.42
2022-08-14T05:53:11.698Z,20.55
2022-08-14T05:54:13.882Z,20.58
2022-08-14T05:55:11.676Z,20.64
2022-08-14T05:56:11.671Z,20.64
2022-08-14T05:57:11.652Z,20.67
2022-08-14T05:58:11.639Z,20.75
2022-08-14T05:59:11.632Z,20.82
2022-08-14T06:00:11.616Z,20.83
2022-08-14T06:01:11.651Z,20.90
2022-08-14T06:02:11.590Z,20.83
2022-08-14T06:03:11.583Z,21.05
2022-08-14T06:04:11.572Z,21.03
2022-08-14T06:05:11.558Z,21.10
2022-08-14T06:06:11.550Z,21.19
2022-08-14T06:07:11.539Z,21.22
2022-08-14T06:08:31.087Z,21.23
2022-08-14T06:09:11.511Z,21.40
2022-08-14T06:10:11.503Z,21.38
2022-08-14T06:11:14.886Z,21.58
2022-08-14T06:12:11.944Z,21.53
2022-08-14T06:13:11.466Z,21.58
2022-08-14T06:14:21.177Z,21.68
2022-08-14T06:15:11.443Z,21.70
2022-08-14T06:16:11.433Z,21.75
2022-08-14T06:17:11.419Z,21.80
2022-08-14T06:18:11.411Z,21.81
2022-08-14T06:19:11.663Z,21.85
2022-08-14T06:20:11.395Z,21.94
2022-08-14T06:21:12.958Z,22.00
2022-08-14T06:22:11.365Z,22.00
2022-08-14T06:23:11.382Z,22.06
2022-08-14T06:24:18.325Z,22.16
2022-08-14T06:25:11.329Z,22.22
2022-08-14T06:26:11.322Z,22.30
2022-08-14T06:27:11.312Z,22.28
2022-08-14T06:28:23.380Z,22.36
2022-08-14T06:29:11.285Z,22.40
2022-08-14T06:30:11.320Z,22.38
2022-08-14T06:31:11.263Z,22.46
2022-08-14T06:32:37.362Z,22.55
2022-08-14T06:33:11.319Z,22.52
2022-08-14T06:35:11.479Z,22.55
2022-08-14T06:35:13.005Z,22.53
2022-08-14T06:36:11.474Z,22.52
2022-08-14T06:37:11.201Z,22.62
2022-08-14T06:38:14.227Z,22.73
2022-08-14T06:39:11.177Z,22.71
2022-08-14T06:40:25.696Z,22.78
2022-08-14T06:41:11.154Z,22.78
2022-08-14T06:42:25.565Z,22.86
2022-08-14T06:43:11.135Z,22.83
2022-08-14T06:44:11.121Z,22.84
2022-08-14T06:45:11.118Z,22.86
2022-08-14T06:46:23.114Z,22.98
2022-08-14T06:47:11.100Z,22.92
2022-08-14T06:48:12.928Z,22.93
2022-08-14T06:49:11.074Z,22.99
2022-08-14T06:50:11.061Z,23.02
2022-08-14T06:51:11.051Z,23.11
2022-08-14T06:52:11.041Z,23.13
2022-08-14T06:53:11.028Z,23.23
2022-08-14T06:54:11.016Z,23.33
2022-08-14T06:55:11.007Z,23.47
2022-08-14T06:56:10.997Z,23.56
2022-08-14T06:57:10.988Z,23.63
2022-08-14T06:58:24.726Z,23.70
2022-08-14T06:59:16.719Z,23.66
2022-08-14T07:00:22.154Z,23.77
2022-08-14T07:01:11.007Z,23.81
2022-08-14T07:02:13.242Z,23.89
2022-08-14T07:03:12.275Z,23.89
2022-08-14T07:04:23.183Z,23.92
2022-08-14T07:05:10.905Z,24.07
2022-08-14T07:06:21.490Z,24.07
2022-08-14T07:07:10.888Z,24.16
2022-08-14T07:08:10.876Z,24.28
2022-08-14T07:09:10.865Z,24.32
2022-08-14T07:10:16.790Z,24.46
2022-08-14T07:11:10.845Z,24.58
2022-08-14T07:12:55.175Z,24.62
2022-08-14T07:13:11.174Z,24.62
2022-08-14T07:14:10.815Z,24.78
2022-08-14T07:15:10.807Z,24.71
2022-08-14T07:16:10.800Z,24.92
2022-08-14T07:17:10.788Z,25.00
2022-08-14T07:18:10.777Z,25.01
2022-08-14T07:19:10.768Z,25.07
2022-08-14T07:20:10.759Z,25.15
2022-08-14T07:21:10.750Z,25.18
2022-08-14T07:22:20.242Z,25.21
2022-08-14T07:23:20.889Z,25.25
2022-08-14T07:24:21.808Z,25.37
2022-08-14T07:25:10.714Z,25.36
2022-08-14T07:26:10.705Z,25.48
2022-08-14T07:27:10.721Z,25.54
2022-08-14T07:28:12.989Z,25.55
2022-08-14T07:29:10.679Z,25.55
2022-08-14T07:30:33.979Z,25.62
2022-08-14T07:31:10.661Z,25.62
2022-08-14T07:32:10.662Z,25.66
2022-08-14T07:33:10.642Z,25.74
2022-08-14T07:34:11.442Z,25.81
2022-08-14T07:35:10.627Z,25.85
2022-08-14T07:36:26.652Z,25.85
2022-08-14T07:37:10.613Z,26.10
2022-08-14T07:38:10.602Z,26.10
2022-08-14T07:39:13.206Z,26.06
2022-08-14T07:40:10.635Z,26.07
2022-08-14T07:41:14.406Z,25.96
2022-08-14T07:42:10.570Z,26.10
2022-08-14T07:43:14.389Z,26.13
2022-08-14T07:44:32.226Z,26.30
2022-08-14T07:45:10.543Z,26.34
2022-08-14T07:46:10.537Z,26.42
2022-08-14T07:47:10.527Z,26.51
2022-08-14T07:48:14.811Z,26.64
2022-08-14T07:49:10.551Z,26.70
2022-08-14T07:50:10.505Z,26.85
2022-08-14T07:51:10.713Z,26.79
2022-08-14T07:52:10.491Z,26.81
2022-08-14T07:53:10.541Z,26.81
2022-08-14T07:54:11.552Z,27.03
2022-08-14T07:55:10.468Z,27.07
2022-08-14T07:56:21.899Z,27.13
2022-08-14T07:57:12.613Z,27.07
2022-08-14T07:58:33.824Z,27.22
2022-08-14T07:59:10.439Z,27.34
2022-08-14T08:00:10.433Z,27.37
2022-08-14T08:01:10.425Z,27.38
2022-08-14T08:02:20.357Z,27.48
2022-08-14T08:04:16.582Z,27.81
2022-08-14T08:05:15.911Z,27.81
2022-08-14T08:07:21.329Z,27.94
2022-08-14T08:08:27.249Z,28.10
2022-08-14T08:10:46.407Z,28.38
2022-08-14T08:11:26.784Z,28.57
2022-08-14T08:12:28.113Z,28.55
2022-08-14T08:13:28.701Z,28.64
2022-08-14T08:14:26.880Z,28.83
2022-08-14T08:15:26.751Z,28.87
2022-08-14T08:16:26.745Z,29.02
2022-08-14T08:17:26.750Z,29.12
2022-08-14T08:18:27.801Z,29.27
2022-08-14T08:19:26.755Z,29.55
2022-08-14T08:20:27.121Z,29.57
2022-08-14T08:21:27.118Z,29.62
2022-08-14T08:22:27.375Z,29.69
2022-08-14T08:23:28.255Z,29.79
2022-08-14T08:24:26.708Z,29.84
2022-08-14T08:25:26.703Z,29.90
2022-08-14T08:26:26.700Z,29.87
2022-08-14T08:27:26.692Z,29.86
2022-08-14T08:28:26.688Z,29.92
2022-08-14T08:29:29.303Z,29.96
2022-08-14T08:30:27.094Z,30.03
2022-08-14T08:31:32.888Z,30.10
2022-08-14T08:32:29.873Z,30.17
2022-08-14T08:33:26.670Z,30.39
2022-08-14T08:34:26.663Z,30.43
2022-08-14T08:35:32.948Z,30.52
2022-08-14T08:36:29.908Z,30.58
2022-08-14T08:37:26.655Z,30.61
2022-08-14T08:39:17.341Z,30.62
2022-08-14T08:39:42.215Z,30.67
2022-08-14T08:40:30.983Z,30.73
2022-08-14T08:41:26.745Z,30.77
2022-08-14T08:42:31.147Z,31.02
2022-08-14T08:43:26.640Z,31.14
2022-08-14T08:44:32.678Z,31.32
2022-08-14T08:45:27.815Z,31.42
2022-08-14T08:46:26.620Z,31.45
2022-08-14T08:47:26.620Z,31.62
2022-08-14T08:48:31.863Z,31.78
2022-08-14T08:49:26.614Z,32.04
2022-08-14T08:50:31.780Z,32.29
2022-08-14T08:51:30.970Z,32.48
2022-08-14T08:52:30.989Z,32.73
2022-08-14T08:53:26.605Z,32.88
2022-08-14T08:54:31.042Z,32.97
2022-08-14T08:55:26.605Z,32.88
2022-08-14T08:56:30.354Z,32.95
2022-08-14T08:57:26.596Z,33.01
2022-08-14T08:58:26.598Z,32.98
2022-08-14T08:59:27.062Z,33.09
2022-08-14T09:00:26.586Z,33.15
2022-08-14T09:01:26.620Z,33.32
2022-08-14T09:02:27.686Z,33.40
2022-08-14T09:03:27.569Z,33.45
2022-08-14T09:04:26.589Z,33.75
2022-08-14T09:05:26.577Z,33.88
2022-08-14T09:07:09.096Z,34.00
2022-08-14T09:07:26.820Z,34.04
2022-08-14T09:08:32.818Z,34.07
2022-08-14T09:09:26.570Z,34.04
2022-08-14T09:10:27.345Z,34.07
2022-08-14T09:11:26.564Z,34.22
2022-08-14T09:12:36.084Z,34.41
2022-08-14T09:13:26.563Z,34.70
2022-08-14T09:14:26.562Z,35.08
2022-08-14T09:15:26.559Z,35.32
2022-08-14T09:16:26.559Z,35.39
2022-08-14T09:17:26.605Z,35.49
2022-08-14T09:18:26.552Z,35.49
2022-08-14T09:19:26.581Z,35.53
2022-08-14T09:20:30.603Z,35.37
2022-08-14T09:21:31.699Z,35.37
2022-08-14T09:22:43.299Z,35.26
2022-08-14T09:23:27.437Z,35.32
2022-08-14T09:24:36.284Z,35.44
2022-08-14T09:26:01.371Z,35.59
2022-08-14T09:26:28.594Z,35.86
2022-08-14T09:27:26.543Z,36.09
2022-08-14T09:28:26.540Z,36.14
2022-08-14T09:29:28.817Z,36.24
2022-08-14T09:30:32.936Z,36.32
2022-08-14T09:31:26.537Z,36.32
2022-08-14T09:32:58.098Z,36.28
2022-08-14T09:33:26.571Z,36.14
2022-08-14T09:34:27.845Z,36.16
2022-08-14T09:35:27.743Z,36.22
2022-08-14T09:36:26.552Z,36.22
2022-08-14T09:37:26.561Z,36.16
2022-08-14T09:38:27.430Z,36.22
2022-08-14T09:39:26.569Z,36.31
2022-08-14T09:40:26.542Z,36.13
2022-08-14T09:41:26.534Z,36.05
2022-08-14T09:42:33.233Z,36.03
2022-08-14T09:43:26.534Z,36.11
2022-08-14T09:44:26.528Z,36.14
2022-08-14T09:45:26.527Z,36.17
2022-08-14T09:46:26.525Z,36.18
2022-08-14T09:47:26.525Z,36.17
2022-08-14T09:48:30.022Z,36.25
2022-08-14T09:49:26.606Z,36.13
2022-08-14T09:50:26.911Z,36.13
2022-08-14T09:51:26.521Z,36.16
2022-08-14T09:52:34.252Z,36.43
2022-08-14T09:54:12.773Z,36.72
2022-08-14T09:54:26.520Z,36.81
2022-08-14T09:55:27.824Z,37.04
2022-08-14T09:56:30.871Z,37.25
2022-08-14T09:57:27.678Z,37.50
2022-08-14T09:58:26.551Z,37.79
2022-08-14T09:59:26.524Z,38.01
2022-08-14T10:00:29.266Z,38.23
2022-08-14T10:01:26.518Z,38.39
2022-08-14T10:02:28.412Z,38.53
2022-08-14T10:03:26.517Z,38.53
2022-08-14T10:04:34.769Z,38.54
2022-08-14T10:05:26.526Z,38.57
2022-08-14T10:06:28.259Z,38.48
2022-08-14T10:07:26.514Z,38.41
2022-08-14T10:08:26.858Z,38.44
2022-08-14T10:09:26.521Z,38.46
2022-08-14T10:10:26.517Z,38.56
2022-08-14T10:11:35.100Z,38.48
2022-08-14T10:12:29.153Z,38.41
2022-08-14T10:13:26.717Z,38.29
2022-08-14T10:14:34.995Z,38.32
2022-08-14T10:15:27.802Z,38.01
2022-08-14T10:16:32.138Z,37.91
2022-08-14T10:17:26.518Z,37.78
2022-08-14T10:18:26.518Z,37.75
2022-08-14T10:19:26.520Z,37.71
2022-08-14T10:20:40.281Z,37.57
2022-08-14T10:21:26.516Z,37.64
2022-08-14T10:23:14.877Z,37.72
2022-08-14T10:23:26.724Z,37.75
2022-08-14T10:24:37.019Z,37.78
2022-08-14T10:25:26.522Z,37.82
2022-08-14T10:26:28.249Z,37.94
2022-08-14T10:27:27.092Z,38.09
2022-08-14T10:28:51.499Z,38.22
2022-08-14T10:29:26.602Z,38.51
2022-08-14T10:30:26.520Z,38.68
2022-08-14T10:31:26.734Z,38.68
2022-08-14T10:32:28.250Z,38.70
2022-08-14T10:33:26.526Z,39.03
2022-08-14T10:34:33.279Z,39.14
2022-08-14T10:35:31.801Z,39.29
2022-08-14T10:36:34.803Z,39.42
2022-08-14T10:37:27.765Z,39.46
2022-08-14T10:38:26.521Z,39.38
2022-08-14T10:39:26.570Z,39.27
2022-08-14T10:40:44.045Z,39.22
2022-08-14T10:41:31.863Z,39.10
2022-08-14T10:42:26.545Z,39.07
2022-08-14T10:43:26.661Z,38.81
2022-08-14T10:44:29.870Z,38.75
2022-08-14T10:45:26.537Z,38.84
2022-08-14T10:47:41.288Z,38.91
2022-08-14T10:47:41.342Z,39.15
2022-08-14T10:48:36.442Z,39.38
2022-08-14T10:49:26.636Z,39.57
2022-08-14T10:50:26.528Z,39.75
2022-08-14T10:51:26.527Z,39.78
2022-08-14T10:52:26.528Z,39.80
2022-08-14T10:53:26.529Z,39.88
2022-08-14T10:54:39.763Z,39.75
2022-08-14T10:55:26.528Z,39.80
2022-08-14T10:56:33.796Z,39.82
2022-08-14T10:57:26.534Z,39.78
2022-08-14T10:58:26.534Z,39.82
2022-08-14T10:59:36.106Z,39.79
2022-08-14T11:00:30.267Z,39.82
2022-08-14T11:01:26.580Z,39.79
2022-08-14T11:02:44.876Z,39.60
2022-08-14T11:03:55.350Z,39.45
2022-08-14T11:04:27.669Z,39.37
2022-08-14T11:05:26.543Z,39.08
2022-08-14T11:06:27.300Z,39.03
2022-08-14T11:07:26.543Z,38.88
2022-08-14T11:08:26.543Z,38.84
2022-08-14T11:09:31.811Z,38.84
2022-08-14T11:10:26.545Z,38.77
2022-08-14T11:11:26.545Z,38.90
2022-08-14T11:12:34.926Z,38.82
2022-08-14T11:13:26.549Z,38.76
2022-08-14T11:14:26.719Z,38.54
2022-08-14T11:15:26.546Z,38.53
2022-08-14T11:16:26.739Z,38.54
2022-08-14T11:17:26.547Z,38.79
2022-08-14T11:18:32.159Z,38.88
2022-08-14T11:19:26.554Z,39.11
2022-08-14T11:20:26.550Z,39.41
2022-08-14T11:21:26.596Z,39.56
2022-08-14T11:22:57.037Z,39.70
2022-08-14T11:23:26.551Z,39.68
2022-08-14T11:24:55.323Z,39.86
2022-08-14T11:25:34.154Z,40.07
2022-08-14T11:26:26.552Z,40.12
2022-08-14T11:27:33.354Z,40.05
2022-08-14T11:28:47.356Z,40.07
2022-08-14T11:29:26.893Z,40.14
2022-08-14T11:30:51.621Z,40.22
2022-08-14T11:31:26.554Z,40.23
2022-08-14T11:32:26.557Z,40.39
2022-08-14T11:33:26.558Z,40.58
2022-08-14T11:34:30.299Z,41.00
2022-08-14T11:35:26.558Z,41.24
2022-08-14T11:36:35.267Z,41.58
2022-08-14T11:37:39.404Z,41.83
2022-08-14T11:38:26.566Z,41.96
2022-08-14T11:39:34.427Z,42.10
2022-08-14T11:40:29.261Z,42.32
2022-08-14T11:41:26.573Z,42.46
2022-08-14T11:42:57.236Z,42.47
2022-08-14T11:43:29.671Z,42.41
2022-08-14T11:44:45.342Z,42.46
2022-08-14T11:45:26.573Z,42.32
2022-08-14T11:46:30.304Z,42.22
2022-08-14T11:47:26.579Z,42.22
2022-08-14T11:49:04.126Z,42.27
2022-08-14T11:49:26.584Z,42.36
2022-08-14T11:50:37.357Z,42.41
2022-08-14T11:51:30.474Z,42.41
2022-08-14T11:52:26.592Z,42.44
2022-08-14T11:53:26.592Z,42.41
2022-08-14T11:54:34.783Z,42.34
2022-08-14T11:55:26.594Z,42.47
2022-08-14T11:56:29.671Z,42.61
2022-08-14T11:57:26.597Z,42.75
2022-08-14T11:58:26.601Z,42.75
2022-08-14T11:59:32.839Z,42.78
2022-08-14T12:00:31.751Z,42.74
2022-08-14T12:01:26.615Z,42.52
2022-08-14T12:02:48.003Z,42.29
2022-08-14T12:03:37.805Z,42.17
2022-08-14T12:04:33.418Z,42.27
2022-08-14T12:05:26.617Z,42.44
2022-08-14T12:06:29.576Z,42.71
2022-08-14T12:07:26.621Z,42.96
2022-08-14T12:08:30.216Z,43.16
2022-08-14T12:09:26.626Z,43.38
2022-08-14T12:10:42.426Z,43.76
2022-08-14T12:11:26.629Z,43.87
2022-08-14T12:12:36.261Z,43.89
2022-08-14T12:13:27.412Z,43.69
2022-08-14T12:14:30.670Z,43.54
2022-08-14T12:15:26.642Z,43.46
2022-08-14T12:16:26.661Z,43.58
2022-08-14T12:17:26.671Z,43.70
2022-08-14T12:18:26.654Z,43.73
2022-08-14T12:19:26.713Z,43.80
2022-08-14T12:20:30.216Z,43.82
2022-08-14T12:21:32.134Z,43.65
2022-08-14T12:22:29.882Z,43.56
2022-08-14T12:23:26.667Z,43.34
2022-08-14T12:24:36.097Z,43.22
2022-08-14T12:25:26.670Z,42.94
2022-08-14T12:26:39.262Z,42.63
2022-08-14T12:27:26.671Z,42.34
2022-08-14T12:28:33.934Z,42.20
2022-08-14T12:29:26.685Z,42.17
2022-08-14T12:30:26.849Z,42.12
2022-08-14T12:31:26.715Z,42.06
2022-08-14T12:32:26.686Z,41.96
2022-08-14T12:33:31.067Z,41.93
2022-08-14T12:34:26.740Z,41.95
2022-08-14T12:35:26.690Z,42.06
2022-08-14T12:36:26.695Z,42.17
2022-08-14T12:37:26.694Z,42.17
2022-08-14T12:38:26.697Z,42.03
2022-08-14T12:39:26.756Z,41.96
2022-08-14T12:40:26.700Z,41.98
2022-08-14T12:41:28.166Z,41.86
2022-08-14T12:42:27.305Z,41.64
2022-08-14T12:43:26.708Z,41.36
2022-08-14T12:44:26.734Z,41.04
2022-08-14T12:45:26.709Z,40.46
2022-08-14T12:46:28.914Z,39.98
2022-08-14T12:47:26.716Z,39.44
2022-08-14T12:48:32.042Z,39.01
2022-08-14T12:49:26.804Z,38.90
2022-08-14T12:50:26.740Z,38.91
2022-08-14T12:51:27.298Z,38.95
2022-08-14T12:52:30.745Z,39.20
2022-08-14T12:53:26.716Z,39.52
2022-08-14T12:54:27.721Z,39.86
2022-08-14T12:55:32.528Z,40.22